createdAt,value
2023-03-26T00:00:26.321Z,45.77
2023-03-26T00:01:26.320Z,45.77
2023-03-26T00:02:26.494Z,45.77
2023-03-26T00:03:26.281Z,45.77
2023-03-26T00:04:26.272Z,45.87
2023-03-26T00:05:26.287Z,45.77
2023-03-26T00:06:26.252Z,45.67
2023-03-26T00:07:26.246Z,45.67
2023-03-26T00:08:26.431Z,45.77
2023-03-26T00:09:26.220Z,45.67
2023-03-26T00:10:26.213Z,45.67
2023-03-26T00:11:26.201Z,45.77
2023-03-26T00:12:26.203Z,45.69
2023-03-26T00:13:26.194Z,45.79
2023-03-26T00:14:26.327Z,45.67
2023-03-26T00:15:26.153Z,45.67
2023-03-26T00:16:26.194Z,45.67
2023-03-26T00:17:26.149Z,45.69
2023-03-26T00:18:26.122Z,45.69
2023-03-26T00:19:26.113Z,45.67
2023-03-26T00:20:26.271Z,45.97
2023-03-26T00:21:26.120Z,45.79
2023-03-26T00:22:26.135Z,45.67
2023-03-26T00:23:26.120Z,45.67
2023-03-26T00:24:26.093Z,45.67
2023-03-26T00:25:26.055Z,45.67
2023-03-26T00:26:26.190Z,45.67
2023-03-26T00:27:33.410Z,45.67
2023-03-26T00:28:26.019Z,45.69
2023-03-26T00:29:26.013Z,45.67
2023-03-26T00:30:26.045Z,45.67
2023-03-26T00:31:26.003Z,45.57
2023-03-26T00:32:26.181Z,45.59
2023-03-26T00:33:25.976Z,45.57
2023-03-26T00:34:25.965Z,45.57
2023-03-26T00:35:25.965Z,45.57
2023-03-26T00:36:26.057Z,45.47
2023-03-26T00:37:25.947Z,45.49
2023-03-26T00:38:26.064Z,45.47
2023-03-26T00:39:25.915Z,45.49
2023-03-26T00:40:25.935Z,45.49
2023-03-26T00:41:26.443Z,45.67
2023-03-26T00:42:25.888Z,45.57
2023-03-26T00:43:25.875Z,45.57
2023-03-26T00:44:26.004Z,45.47
2023-03-26T00:45:25.865Z,45.47
2023-03-26T00:46:25.937Z,45.39
2023-03-26T00:47:25.906Z,45.37
2023-03-26T00:48:37.812Z,45.37
2023-03-26T00:49:25.818Z,45.37
2023-03-26T00:50:25.946Z,45.37
2023-03-26T00:51:25.801Z,45.37
2023-03-26T00:52:25.780Z,45.37
2023-03-26T00:53:25.797Z,45.37
2023-03-26T00:54:25.765Z,45.39
2023-03-26T00:55:25.754Z,45.39
2023-03-26T00:56:25.917Z,45.37
2023-03-26T00:57:34.825Z,45.37
2023-03-26T00:58:25.722Z,45.39
2023-03-26T00:59:25.724Z,45.39
2023-03-26T01:00:25.704Z,45.39
2023-03-26T01:01:25.725Z,45.29
2023-03-26T01:02:26.013Z,45.29
2023-03-26T01:03:27.743Z,45.29
2023-03-26T01:04:25.765Z,45.29
2023-03-26T01:05:25.675Z,45.29
2023-03-26T01:06:25.629Z,45.29
2023-03-26T01:07:25.645Z,45.29
2023-03-26T01:08:25.775Z,45.29
2023-03-26T01:09:25.609Z,45.29
2023-03-26T01:10:25.591Z,45.29
2023-03-26T01:11:25.581Z,45.29
2023-03-26T01:12:25.568Z,45.29
2023-03-26T01:13:25.567Z,45.29
2023-03-26T01:14:25.689Z,45.29
2023-03-26T01:15:25.549Z,45.29
2023-03-26T01:16:25.596Z,45.18
2023-03-26T01:17:25.556Z,45.18
2023-03-26T01:18:25.506Z,45.29
2023-03-26T01:19:25.506Z,45.29
2023-03-26T01:20:25.625Z,45.29
2023-03-26T01:21:25.489Z,45.18
2023-03-26T01:22:25.469Z,45.09
2023-03-26T01:23:25.461Z,45.18
2023-03-26T01:24:25.457Z,45.18
2023-03-26T01:25:25.448Z,45.18
2023-03-26T01:26:25.581Z,45.18
2023-03-26T01:27:33.476Z,45.18
2023-03-26T01:28:25.414Z,45.18
2023-03-26T01:29:25.416Z,45.18
2023-03-26T01:30:25.399Z,45.18
2023-03-26T01:31:25.382Z,45.18
2023-03-26T01:32:25.595Z,45.18
2023-03-26T01:33:25.467Z,45.18
2023-03-26T01:34:25.347Z,45.18
2023-03-26T01:35:25.357Z,45.09
2023-03-26T01:36:25.325Z,45.18
2023-03-26T01:37:25.322Z,45.09
2023-03-26T01:38:25.553Z,45.09
2023-03-26T01:39:25.341Z,45.09
2023-03-26T01:40:25.287Z,45.09
2023-03-26T01:41:25.286Z,45.09
2023-03-26T01:42:25.305Z,45.09
2023-03-26T01:43:25.263Z,45.09
2023-03-26T01:44:25.392Z,45.09
2023-03-26T01:45:25.238Z,45.09
2023-03-26T01:46:25.246Z,45.09
2023-03-26T01:47:25.252Z,45.09
2023-03-26T01:48:25.200Z,44.99
2023-03-26T01:49:25.194Z,44.99
2023-03-26T01:50:25.309Z,44.99
2023-03-26T01:51:25.187Z,45.09
2023-03-26T01:52:25.193Z,44.99
2023-03-26T01:53:25.193Z,44.99
2023-03-26T01:54:25.153Z,44.99
2023-03-26T01:55:25.128Z,44.99
2023-03-26T01:56:25.158Z,44.99
2023-03-26T01:57:25.111Z,44.99
2023-03-26T01:58:25.103Z,44.99
2023-03-26T01:59:25.107Z,44.99
2023-03-26T02:00:25.077Z,44.99
2023-03-26T02:01:25.107Z,44.99
2023-03-26T02:02:25.425Z,44.99
2023-03-26T02:03:25.158Z,44.99
2023-03-26T02:04:25.042Z,44.89
2023-03-26T02:05:25.041Z,44.99
2023-03-26T02:06:25.016Z,44.99
2023-03-26T02:07:25.017Z,44.79
2023-03-26T02:08:25.047Z,44.79
2023-03-26T02:09:24.987Z,44.89
2023-03-26T02:10:24.986Z,44.89
2023-03-26T02:11:34.692Z,44.99
2023-03-26T02:12:24.950Z,44.99
2023-03-26T02:13:24.945Z,44.99
2023-03-26T02:14:25.088Z,44.89
2023-03-26T02:15:24.929Z,44.89
2023-03-26T02:16:24.933Z,44.89
2023-03-26T02:17:24.933Z,44.89
2023-03-26T02:18:24.898Z,44.89
2023-03-26T02:19:24.872Z,44.89
2023-03-26T02:20:24.983Z,44.89
2023-03-26T02:21:24.858Z,44.89
2023-03-26T02:22:24.848Z,44.89
2023-03-26T02:23:24.832Z,44.89
2023-03-26T02:24:24.820Z,44.89
2023-03-26T02:25:24.816Z,44.89
2023-03-26T02:26:24.972Z,44.89
2023-03-26T02:27:31.962Z,44.89
2023-03-26T02:28:24.775Z,44.89
2023-03-26T02:29:24.771Z,44.89
2023-03-26T02:30:24.760Z,44.89
2023-03-26T02:31:24.851Z,44.89
2023-03-26T02:32:25.843Z,44.89
2023-03-26T02:33:24.742Z,44.89
2023-03-26T02:34:24.713Z,44.89
2023-03-26T02:35:24.805Z,44.89
2023-03-26T02:36:24.885Z,44.89
2023-03-26T02:37:24.685Z,44.89
2023-03-26T02:38:24.782Z,44.89
2023-03-26T02:39:24.672Z,44.89
2023-03-26T02:40:24.694Z,44.89
2023-03-26T02:41:24.657Z,44.89
2023-03-26T02:42:24.636Z,44.89
2023-03-26T02:43:24.628Z,44.89
2023-03-26T02:44:24.790Z,44.89
2023-03-26T02:45:24.619Z,44.89
2023-03-26T02:46:24.638Z,44.89
2023-03-26T02:47:24.612Z,44.91
2023-03-26T02:48:24.588Z,44.91
2023-03-26T02:49:24.557Z,44.89
2023-03-26T02:50:24.696Z,44.89
2023-03-26T02:51:24.556Z,44.89
2023-03-26T02:52:24.534Z,44.91
2023-03-26T02:53:24.519Z,44.91
2023-03-26T02:54:24.517Z,44.91
2023-03-26T02:55:24.511Z,44.91
2023-03-26T02:56:24.617Z,44.81
2023-03-26T02:57:24.493Z,44.79
2023-03-26T02:58:24.475Z,44.81
2023-03-26T02:59:24.466Z,44.81
2023-03-26T03:00:24.441Z,44.81
2023-03-26T03:01:24.495Z,44.81
2023-03-26T03:02:24.531Z,44.81
2023-03-26T03:03:24.534Z,44.81
2023-03-26T03:04:24.415Z,44.81
2023-03-26T03:05:24.398Z,44.81
2023-03-26T03:06:24.385Z,44.81
2023-03-26T03:07:24.388Z,44.81
2023-03-26T03:08:24.654Z,44.81
2023-03-26T03:09:24.382Z,44.81
2023-03-26T03:10:24.342Z,44.81
2023-03-26T03:11:24.350Z,44.81
2023-03-26T03:12:24.362Z,44.81
2023-03-26T03:13:24.330Z,44.71
2023-03-26T03:14:24.495Z,44.71
2023-03-26T03:15:24.344Z,44.71
2023-03-26T03:16:24.378Z,44.71
2023-03-26T03:17:24.299Z,44.71
2023-03-26T03:18:24.280Z,44.71
2023-03-26T03:19:24.278Z,44.71
2023-03-26T03:20:24.452Z,44.71
2023-03-26T03:21:24.274Z,44.71
2023-03-26T03:22:24.264Z,44.71
2023-03-26T03:23:24.344Z,44.71
2023-03-26T03:24:24.199Z,44.71
2023-03-26T03:25:24.222Z,44.71
2023-03-26T03:26:24.318Z,44.71
2023-03-26T03:27:32.500Z,44.71
2023-03-26T03:28:24.255Z,44.71
2023-03-26T03:29:24.177Z,44.71
2023-03-26T03:30:24.239Z,44.71
2023-03-26T03:31:24.195Z,44.71
2023-03-26T03:32:24.441Z,44.71
2023-03-26T03:33:25.002Z,44.71
2023-03-26T03:34:24.112Z,44.71
2023-03-26T03:35:24.138Z,44.71
2023-03-26T03:36:24.099Z,44.71
2023-03-26T03:37:24.086Z,44.71
2023-03-26T03:38:24.079Z,44.60
2023-03-26T03:39:24.057Z,44.60
2023-03-26T03:40:24.037Z,44.71
2023-03-26T03:41:24.031Z,44.71
2023-03-26T03:42:24.014Z,44.60
2023-03-26T03:43:24.004Z,44.60
2023-03-26T03:44:24.529Z,44.60
2023-03-26T03:45:24.034Z,44.60
2023-03-26T03:46:24.010Z,44.60
2023-03-26T03:47:23.981Z,44.60
2023-03-26T03:48:23.960Z,44.60
2023-03-26T03:49:23.967Z,44.60
2023-03-26T03:50:23.937Z,44.60
2023-03-26T03:51:23.938Z,44.60
2023-03-26T03:52:23.909Z,44.60
2023-03-26T03:53:23.901Z,44.60
2023-03-26T03:54:23.918Z,44.60
2023-03-26T03:55:24.032Z,44.60
2023-03-26T03:56:23.880Z,44.60
2023-03-26T03:57:23.881Z,44.60
2023-03-26T03:58:23.874Z,44.60
2023-03-26T03:59:23.845Z,44.60
2023-03-26T04:00:23.854Z,44.60
2023-03-26T04:01:23.979Z,44.60
2023-03-26T04:02:23.978Z,44.60
2023-03-26T04:03:34.022Z,44.60
2023-03-26T04:04:23.800Z,44.60
2023-03-26T04:05:23.782Z,44.60
2023-03-26T04:06:23.761Z,44.51
2023-03-26T04:07:23.785Z,44.51
2023-03-26T04:08:23.750Z,44.51
2023-03-26T04:09:23.773Z,44.60
2023-03-26T04:10:23.719Z,44.60
2023-03-26T04:11:23.731Z,44.51
2023-03-26T04:12:23.710Z,44.51
2023-03-26T04:13:23.767Z,44.51
2023-03-26T04:14:23.968Z,44.51
2023-03-26T04:15:23.720Z,44.51
2023-03-26T04:16:23.681Z,44.51
2023-03-26T04:17:23.709Z,44.51
2023-03-26T04:18:23.656Z,44.51
2023-03-26T04:19:23.792Z,44.51
2023-03-26T04:20:23.645Z,44.51
2023-03-26T04:21:23.603Z,44.51
2023-03-26T04:22:23.611Z,44.51
2023-03-26T04:23:23.587Z,44.51
2023-03-26T04:24:23.581Z,44.51
2023-03-26T04:25:23.641Z,44.51
2023-03-26T04:26:23.568Z,44.51
2023-03-26T04:27:34.512Z,44.51
2023-03-26T04:28:23.533Z,44.51
2023-03-26T04:29:23.521Z,44.51
2023-03-26T04:30:23.535Z,44.51
2023-03-26T04:31:23.583Z,44.51
2023-03-26T04:32:23.537Z,44.51
2023-03-26T04:33:23.486Z,44.40
2023-03-26T04:34:23.489Z,44.51
2023-03-26T04:35:23.510Z,44.51
2023-03-26T04:36:23.457Z,44.51
2023-03-26T04:37:23.473Z,44.51
2023-03-26T04:38:23.442Z,44.51
2023-03-26T04:39:23.437Z,44.51
2023-03-26T04:40:23.437Z,44.51
2023-03-26T04:41:23.403Z,44.40
2023-03-26T04:42:23.391Z,44.51
2023-03-26T04:43:23.413Z,44.51
2023-03-26T04:44:23.381Z,44.51
2023-03-26T04:45:23.356Z,44.51
2023-03-26T04:46:23.378Z,44.51
2023-03-26T04:47:23.348Z,44.51
2023-03-26T04:48:23.349Z,44.51
2023-03-26T04:49:23.460Z,44.51
2023-03-26T04:50:23.309Z,44.51
2023-03-26T04:51:23.293Z,44.51
2023-03-26T04:52:23.285Z,44.40
2023-03-26T04:53:23.269Z,44.40
2023-03-26T04:54:23.269Z,44.51
2023-03-26T04:55:23.389Z,44.51
2023-03-26T04:56:23.254Z,44.51
2023-03-26T04:57:23.230Z,44.51
2023-03-26T04:58:23.233Z,44.51
2023-03-26T04:59:23.212Z,44.51
2023-03-26T05:00:23.293Z,44.51
2023-03-26T05:01:23.392Z,44.51
2023-03-26T05:02:23.188Z,44.51
2023-03-26T05:03:23.174Z,44.51
2023-03-26T05:04:23.267Z,44.51
2023-03-26T05:05:23.151Z,44.51
2023-03-26T05:06:23.134Z,44.51
2023-03-26T05:07:23.227Z,44.51
2023-03-26T05:08:23.072Z,44.51
2023-03-26T05:09:23.060Z,44.51
2023-03-26T05:10:23.061Z,44.51
2023-03-26T05:11:23.034Z,44.51
2023-03-26T05:12:23.035Z,44.51
2023-03-26T05:13:23.372Z,44.51
2023-03-26T05:14:23.012Z,44.51
2023-03-26T05:15:22.988Z,44.51
2023-03-26T05:16:23.031Z,44.51
2023-03-26T05:17:23.025Z,44.51
2023-03-26T05:18:23.326Z,44.51
2023-03-26T05:19:23.050Z,44.51
2023-03-26T05:20:23.003Z,44.51
2023-03-26T05:21:22.944Z,44.51
2023-03-26T05:22:22.918Z,44.51
2023-03-26T05:23:22.939Z,44.51
2023-03-26T05:24:22.899Z,44.51
2023-03-26T05:25:23.035Z,44.51
2023-03-26T05:26:22.889Z,44.51
2023-03-26T05:27:30.040Z,44.51
2023-03-26T05:28:22.859Z,44.51
2023-03-26T05:29:22.842Z,44.51
2023-03-26T05:30:22.835Z,44.51
2023-03-26T05:31:22.993Z,44.51
2023-03-26T05:32:22.826Z,44.51
2023-03-26T05:33:22.986Z,44.51
2023-03-26T05:34:22.802Z,44.51
2023-03-26T05:35:22.798Z,44.51
2023-03-26T05:36:22.800Z,44.51
2023-03-26T05:37:22.894Z,44.51
2023-03-26T05:38:23.006Z,44.51
2023-03-26T05:39:22.766Z,44.51
2023-03-26T05:40:22.752Z,44.51
2023-03-26T05:41:22.716Z,44.51
2023-03-26T05:42:22.719Z,44.51
2023-03-26T05:43:22.743Z,44.51
2023-03-26T05:44:22.701Z,44.51
2023-03-26T05:45:22.703Z,44.51
2023-03-26T05:46:22.705Z,44.51
2023-03-26T05:47:22.700Z,44.51
2023-03-26T05:48:22.658Z,44.51
2023-03-26T05:49:22.772Z,44.51
2023-03-26T05:50:22.649Z,44.51
2023-03-26T05:51:22.664Z,44.51
2023-03-26T05:52:22.610Z,44.51
2023-03-26T05:53:22.595Z,44.51
2023-03-26T05:54:22.592Z,44.51
2023-03-26T05:55:23.064Z,44.51
2023-03-26T05:56:22.579Z,44.51
2023-03-26T05:57:22.566Z,44.51
2023-03-26T05:58:22.548Z,44.51
2023-03-26T05:59:22.542Z,44.51
2023-03-26T06:00:22.553Z,44.51
2023-03-26T06:01:22.668Z,44.51
2023-03-26T06:02:22.553Z,44.51
2023-03-26T06:03:22.713Z,44.51
2023-03-26T06:04:22.573Z,44.51
2023-03-26T06:05:22.473Z,44.51
2023-03-26T06:06:22.456Z,44.51
2023-03-26T06:07:22.599Z,44.51
2023-03-26T06:08:22.448Z,44.51
2023-03-26T06:09:22.429Z,44.51
2023-03-26T06:10:22.427Z,44.40
2023-03-26T06:11:22.410Z,44.40
2023-03-26T06:12:22.402Z,44.51
2023-03-26T06:13:22.416Z,44.60
2023-03-26T06:14:23.046Z,44.51
2023-03-26T06:15:22.365Z,44.60
2023-03-26T06:16:27.302Z,44.60
2023-03-26T06:17:22.372Z,44.40
2023-03-26T06:18:22.361Z,44.40
2023-03-26T06:19:22.586Z,44.51
2023-03-26T06:20:22.323Z,44.51
2023-03-26T06:21:22.310Z,44.51
2023-03-26T06:22:22.298Z,44.60
2023-03-26T06:23:22.285Z,44.71
2023-03-26T06:24:22.439Z,44.71
2023-03-26T06:25:22.429Z,44.71
2023-03-26T06:26:22.257Z,44.60
2023-03-26T06:27:28.804Z,44.60
2023-03-26T06:28:22.259Z,44.60
2023-03-26T06:29:22.240Z,44.60
2023-03-26T06:30:22.225Z,44.51
2023-03-26T06:31:22.310Z,44.51
2023-03-26T06:32:22.220Z,44.40
2023-03-26T06:33:24.165Z,44.31
2023-03-26T06:34:22.193Z,44.31
2023-03-26T06:35:22.158Z,44.20
2023-03-26T06:36:22.165Z,44.20
2023-03-26T06:37:22.285Z,44.10
2023-03-26T06:38:22.478Z,44.10
2023-03-26T06:39:22.116Z,44.00
2023-03-26T06:40:22.189Z,44.00
2023-03-26T06:41:22.093Z,44.00
2023-03-26T06:42:22.089Z,44.00
2023-03-26T06:43:22.123Z,43.90
2023-03-26T06:44:22.069Z,43.90
2023-03-26T06:45:22.074Z,43.90
2023-03-26T06:46:22.063Z,43.80
2023-03-26T06:47:22.080Z,43.80
2023-03-26T06:48:22.034Z,43.80
2023-03-26T06:49:22.169Z,43.70
2023-03-26T06:50:22.015Z,43.70
2023-03-26T06:51:22.007Z,43.80
2023-03-26T06:52:22.022Z,43.80
2023-03-26T06:53:22.002Z,43.70
2023-03-26T06:54:21.971Z,43.70
2023-03-26T06:55:22.119Z,43.60
2023-03-26T06:56:21.948Z,43.70
2023-03-26T06:57:21.933Z,43.70
2023-03-26T06:58:21.965Z,43.70
2023-03-26T06:59:21.924Z,43.70
2023-03-26T07:00:21.955Z,43.60
2023-03-26T07:01:22.119Z,43.60
2023-03-26T07:02:21.959Z,43.60
2023-03-26T07:03:21.928Z,43.60
2023-03-26T07:04:21.900Z,43.70
2023-03-26T07:05:22.564Z,43.70
2023-03-26T07:06:21.921Z,43.70
2023-03-26T07:07:21.999Z,43.70
2023-03-26T07:08:22.225Z,43.70
2023-03-26T07:09:21.808Z,43.70
2023-03-26T07:10:21.814Z,43.60
2023-03-26T07:11:21.787Z,43.60
2023-03-26T07:12:21.776Z,43.60
2023-03-26T07:13:21.990Z,43.60
2023-03-26T07:14:21.795Z,43.50
2023-03-26T07:15:21.747Z,43.50
2023-03-26T07:16:21.798Z,43.50
2023-03-26T07:17:21.743Z,43.50
2023-03-26T07:18:22.020Z,43.50
2023-03-26T07:19:21.904Z,43.50
2023-03-26T07:20:21.716Z,43.38
2023-03-26T07:21:21.683Z,43.40
2023-03-26T07:22:21.679Z,43.40
2023-03-26T07:23:21.690Z,43.40
2023-03-26T07:24:21.661Z,43.30
2023-03-26T07:25:21.966Z,43.30
2023-03-26T07:26:21.639Z,43.28
2023-03-26T07:27:29.120Z,43.28
2023-03-26T07:28:21.648Z,43.28
2023-03-26T07:29:21.612Z,43.28
2023-03-26T07:30:21.596Z,43.30
2023-03-26T07:31:21.748Z,43.30
2023-03-26T07:32:21.680Z,43.20
2023-03-26T07:33:21.557Z,43.18
2023-03-26T07:34:21.579Z,43.20
2023-03-26T07:35:21.576Z,43.20
2023-03-26T07:36:21.542Z,43.20
2023-03-26T07:37:21.666Z,43.20
2023-03-26T07:38:21.525Z,43.10
2023-03-26T07:39:21.515Z,43.20
2023-03-26T07:40:21.536Z,43.10
2023-03-26T07:41:21.491Z,43.10
2023-03-26T07:42:21.468Z,43.10
2023-03-26T07:43:21.493Z,43.10
2023-03-26T07:44:21.447Z,43.10
2023-03-26T07:45:21.454Z,43.10
2023-03-26T07:46:21.529Z,43.10
2023-03-26T07:47:21.480Z,43.10
2023-03-26T07:48:21.480Z,43.10
2023-03-26T07:49:21.627Z,43.00
2023-03-26T07:50:21.536Z,42.97
2023-03-26T07:51:21.435Z,42.97
2023-03-26T07:52:21.492Z,42.78
2023-03-26T07:53:21.402Z,42.47
2023-03-26T07:54:21.414Z,42.47
2023-03-26T07:55:21.564Z,42.78
2023-03-26T07:56:21.388Z,42.97
2023-03-26T07:57:21.378Z,43.08
2023-03-26T07:58:21.299Z,38.66
2023-03-26T07:59:21.310Z,36.57
2023-03-26T08:00:21.288Z,35.57
2023-03-26T08:01:21.418Z,35.16
2023-03-26T08:02:21.330Z,36.08
2023-03-26T08:03:21.367Z,37.29
2023-03-26T08:04:24.178Z,39.42
2023-03-26T08:05:21.252Z,40.42
2023-03-26T08:06:21.236Z,41.23
2023-03-26T08:07:21.249Z,41.73
2023-03-26T08:08:21.198Z,42.24
2023-03-26T08:09:21.211Z,42.44
2023-03-26T08:10:21.173Z,42.74
2023-03-26T08:11:21.159Z,42.84
2023-03-26T08:12:21.174Z,43.24
2023-03-26T08:13:21.176Z,43.04
2023-03-26T08:14:21.137Z,43.34
2023-03-26T08:15:21.133Z,43.44
2023-03-26T08:16:21.294Z,43.34
2023-03-26T08:17:21.099Z,43.44
2023-03-26T08:18:21.214Z,43.44
2023-03-26T08:19:21.224Z,43.42
2023-03-26T08:20:21.167Z,43.42
2023-03-26T08:21:21.226Z,43.32
2023-03-26T08:22:21.053Z,43.32
2023-03-26T08:23:21.046Z,43.32
2023-03-26T08:24:21.040Z,43.32
2023-03-26T08:25:21.102Z,43.32
2023-03-26T08:26:21.014Z,43.32
2023-03-26T08:27:21.043Z,43.32
2023-03-26T08:28:21.015Z,43.32
2023-03-26T08:29:20.980Z,43.22
2023-03-26T08:30:20.978Z,43.22
2023-03-26T08:31:21.073Z,43.12
2023-03-26T08:32:20.945Z,43.12
2023-03-26T08:33:20.943Z,43.22
2023-03-26T08:34:20.922Z,43.12
2023-03-26T08:35:20.958Z,43.12
2023-03-26T08:36:20.910Z,43.12
2023-03-26T08:37:21.041Z,43.12
2023-03-26T08:38:20.885Z,43.12
2023-03-26T08:39:20.871Z,43.10
2023-03-26T08:40:20.851Z,43.10
2023-03-26T08:41:20.850Z,43.10
2023-03-26T08:42:20.856Z,43.10
2023-03-26T08:43:20.860Z,43.00
2023-03-26T08:44:20.811Z,43.10
2023-03-26T08:45:20.826Z,43.10
2023-03-26T08:46:20.893Z,43.10
2023-03-26T08:47:20.824Z,43.00
2023-03-26T08:48:20.780Z,43.00
2023-03-26T08:49:21.931Z,43.00
2023-03-26T08:50:20.755Z,43.00
2023-03-26T08:51:20.758Z,42.90
2023-03-26T08:52:20.732Z,42.90
2023-03-26T08:53:20.865Z,42.90
2023-03-26T08:54:20.719Z,42.90
2023-03-26T08:55:20.893Z,42.90
2023-03-26T08:56:20.697Z,42.90
2023-03-26T08:57:20.681Z,42.90
2023-03-26T08:58:20.675Z,42.90
2023-03-26T08:59:20.666Z,42.90
2023-03-26T09:00:20.693Z,42.90
2023-03-26T09:01:20.824Z,42.90
2023-03-26T09:02:20.639Z,42.80
2023-03-26T09:03:20.621Z,42.80
2023-03-26T09:04:20.611Z,42.80
2023-03-26T09:05:20.600Z,42.80
2023-03-26T09:06:20.602Z,42.90
2023-03-26T09:07:20.723Z,42.80
2023-03-26T09:08:20.574Z,42.80
2023-03-26T09:09:20.572Z,42.69
2023-03-26T09:10:20.575Z,42.69
2023-03-26T09:11:20.544Z,42.69
2023-03-26T09:12:20.523Z,42.78
2023-03-26T09:13:20.579Z,42.80
2023-03-26T09:14:20.507Z,42.80
2023-03-26T09:15:20.503Z,42.78
2023-03-26T09:16:20.549Z,42.80
2023-03-26T09:17:20.477Z,42.78
2023-03-26T09:18:20.468Z,42.78
2023-03-26T09:19:20.622Z,42.68
2023-03-26T09:20:20.450Z,42.68
2023-03-26T09:21:20.449Z,42.68
2023-03-26T09:22:20.464Z,42.68
2023-03-26T09:23:20.444Z,42.68
2023-03-26T09:24:20.419Z,42.68
2023-03-26T09:25:20.546Z,42.58
2023-03-26T09:26:20.392Z,42.58
2023-03-26T09:27:27.851Z,42.58
2023-03-26T09:28:20.380Z,42.58
2023-03-26T09:29:20.359Z,42.58
2023-03-26T09:30:20.369Z,42.58
2023-03-26T09:31:21.182Z,42.58
2023-03-26T09:32:20.352Z,42.58
2023-03-26T09:33:20.320Z,42.58
2023-03-26T09:34:20.322Z,42.58
2023-03-26T09:35:20.326Z,42.58
2023-03-26T09:36:20.321Z,42.58
2023-03-26T09:37:20.544Z,42.58
2023-03-26T09:38:20.272Z,42.58
2023-03-26T09:39:20.254Z,42.68
2023-03-26T09:40:20.292Z,42.68
2023-03-26T09:41:20.236Z,42.68
2023-03-26T09:42:20.241Z,42.78
2023-03-26T09:43:20.263Z,42.78
2023-03-26T09:44:20.204Z,42.78
2023-03-26T09:45:20.202Z,42.78
2023-03-26T09:46:20.259Z,42.88
2023-03-26T09:47:20.218Z,42.97
2023-03-26T09:48:20.157Z,42.97
2023-03-26T09:49:20.263Z,43.18
2023-03-26T09:50:20.139Z,42.97
2023-03-26T09:51:20.144Z,42.88
2023-03-26T09:52:20.116Z,42.88
2023-03-26T09:53:20.125Z,42.88
2023-03-26T09:54:20.098Z,42.88
2023-03-26T09:55:20.274Z,42.88
2023-03-26T09:56:20.083Z,42.88
2023-03-26T09:57:20.153Z,42.88
2023-03-26T09:58:20.132Z,42.88
2023-03-26T09:59:20.060Z,42.88
2023-03-26T10:00:20.056Z,42.88
2023-03-26T10:01:20.219Z,42.88
2023-03-26T10:02:20.030Z,42.88
2023-03-26T10:03:20.075Z,42.88
2023-03-26T10:04:20.028Z,42.88
2023-03-26T10:05:20.002Z,42.88
2023-03-26T10:06:19.974Z,42.88
2023-03-26T10:07:20.124Z,42.97
2023-03-26T10:08:19.964Z,42.97
2023-03-26T10:09:19.975Z,42.97
2023-03-26T10:10:19.933Z,42.97
2023-03-26T10:11:19.935Z,42.97
2023-03-26T10:12:19.939Z,42.97
2023-03-26T10:13:19.926Z,42.97
2023-03-26T10:14:19.922Z,43.08
2023-03-26T10:15:19.907Z,43.08
2023-03-26T10:16:19.909Z,43.08
2023-03-26T10:17:19.876Z,43.08
2023-03-26T10:18:27.832Z,43.08
2023-03-26T10:19:19.958Z,43.08
2023-03-26T10:20:19.837Z,43.18
2023-03-26T10:21:19.824Z,43.18
2023-03-26T10:22:19.807Z,43.18
2023-03-26T10:23:19.813Z,43.18
2023-03-26T10:24:19.804Z,43.18
2023-03-26T10:25:19.937Z,43.18
2023-03-26T10:26:19.767Z,42.97
2023-03-26T10:28:13.545Z,42.97
2023-03-26T10:29:14.518Z,43.18
2023-03-26T10:30:14.510Z,43.18
2023-03-26T10:31:14.670Z,43.18
2023-03-26T10:32:14.498Z,43.18
2023-03-26T10:33:14.483Z,43.18
2023-03-26T10:34:28.635Z,43.18
2023-03-26T10:35:14.466Z,43.18
2023-03-26T10:36:14.455Z,43.18
2023-03-26T10:37:14.539Z,43.08
2023-03-26T10:38:14.440Z,43.18
2023-03-26T10:39:36.402Z,43.28
2023-03-26T10:40:14.421Z,43.28
2023-03-26T10:41:14.472Z,43.38
2023-03-26T10:42:14.551Z,43.38
2023-03-26T10:43:14.455Z,43.38
2023-03-26T10:44:14.389Z,43.48
2023-03-26T10:45:14.878Z,43.48
2023-03-26T10:46:42.105Z,43.48
2023-03-26T10:47:14.323Z,43.46
2023-03-26T10:48:14.442Z,43.46
2023-03-26T10:49:14.372Z,43.56
2023-03-26T10:50:22.748Z,43.56
2023-03-26T10:51:16.048Z,43.66
2023-03-26T10:52:14.268Z,43.66
2023-03-26T10:53:15.849Z,43.66
2023-03-26T10:54:14.244Z,43.76
2023-03-26T10:56:13.708Z,43.76
2023-03-26T10:56:19.283Z,43.76
2023-03-26T10:57:19.155Z,43.76
2023-03-26T10:58:19.152Z,43.86
2023-03-26T10:59:19.144Z,43.46
2023-03-26T11:00:19.863Z,43.76
2023-03-26T11:01:19.170Z,44.16
2023-03-26T11:02:19.469Z,43.56
2023-03-26T11:03:19.205Z,42.76
2023-03-26T11:04:19.095Z,42.96
2023-03-26T11:05:19.118Z,43.56
2023-03-26T11:06:19.229Z,44.06
2023-03-26T11:07:19.051Z,44.06
2023-03-26T11:08:19.051Z,43.56
2023-03-26T11:09:19.060Z,43.56
2023-03-26T11:10:19.034Z,43.56
2023-03-26T11:11:19.022Z,43.96
2023-03-26T11:12:27.228Z,43.96
2023-03-26T11:13:19.028Z,43.36
2023-03-26T11:14:31.843Z,43.86
2023-03-26T11:15:18.978Z,44.06
2023-03-26T11:16:18.985Z,43.96
2023-03-26T11:17:40.477Z,44.06
2023-03-26T11:18:19.183Z,43.26
2023-03-26T11:19:19.919Z,43.46
2023-03-26T11:20:18.928Z,43.76
2023-03-26T11:21:20.639Z,43.96
2023-03-26T11:22:18.956Z,43.66
2023-03-26T11:23:19.094Z,43.96
2023-03-26T11:24:21.293Z,44.06
2023-03-26T11:25:26.456Z,44.16
2023-03-26T11:26:21.004Z,44.26
2023-03-26T11:29:03.843Z,44.36
2023-03-26T11:34:42.063Z,44.26
2023-03-26T11:34:47.517Z,44.36
2023-03-26T11:35:47.524Z,44.36
2023-03-26T11:36:47.467Z,43.86
2023-03-26T11:37:47.480Z,44.26
2023-03-26T11:38:47.489Z,44.46
2023-03-26T11:39:47.485Z,44.46
2023-03-26T11:40:47.426Z,44.56
2023-03-26T11:41:47.458Z,44.16
2023-03-26T11:42:47.400Z,44.16
2023-03-26T11:43:47.397Z,43.96
2023-03-26T11:44:47.382Z,42.96
2023-03-26T11:45:47.495Z,43.46
2023-03-26T11:46:47.449Z,43.74
2023-03-26T11:47:47.425Z,44.04
2023-03-26T11:48:47.372Z,43.74
2023-03-26T11:49:47.345Z,43.84
2023-03-26T11:50:47.329Z,44.44
2023-03-26T11:51:47.482Z,44.44
2023-03-26T11:52:47.302Z,44.44
2023-03-26T11:53:47.309Z,44.44
2023-03-26T11:54:47.293Z,44.46
2023-03-26T11:55:47.283Z,44.56
2023-03-26T11:57:05.266Z,44.46
2023-03-26T11:57:47.400Z,44.36
2023-03-26T11:58:47.248Z,44.56
2023-03-26T11:59:56.600Z,44.76
2023-03-26T12:00:47.238Z,44.67
2023-03-26T12:01:47.236Z,44.46
2023-03-26T12:02:47.265Z,44.76
2023-03-26T12:03:47.336Z,44.87
2023-03-26T12:04:47.250Z,44.96
2023-03-26T12:05:47.168Z,44.96
2023-03-26T12:06:47.173Z,44.96
2023-03-26T12:07:47.137Z,45.06
2023-03-26T12:08:47.312Z,44.87
2023-03-26T12:09:47.267Z,44.56
2023-03-26T12:10:47.122Z,44.76
2023-03-26T12:11:47.094Z,45.06
2023-03-26T12:12:47.092Z,45.26
2023-03-26T12:13:47.069Z,45.26
2023-03-26T12:14:47.069Z,45.57
2023-03-26T12:15:47.305Z,45.67
2023-03-26T12:16:47.134Z,45.77
2023-03-26T12:17:47.117Z,45.26
2023-03-26T12:18:47.035Z,45.97
2023-03-26T12:19:47.021Z,46.07
2023-03-26T12:20:47.014Z,46.07
2023-03-26T12:21:47.165Z,45.47
2023-03-26T12:22:47.956Z,44.87
2023-03-26T12:23:46.968Z,43.86
2023-03-26T12:24:46.985Z,45.77
2023-03-26T12:25:46.948Z,46.17
2023-03-26T12:26:47.036Z,47.07
2023-03-26T12:27:47.062Z,47.38
2023-03-26T12:28:46.932Z,47.58
2023-03-26T12:29:46.914Z,47.47
2023-03-26T12:30:46.916Z,47.47
2023-03-26T12:31:46.910Z,47.27
2023-03-26T12:32:47.099Z,47.17
2023-03-26T12:33:47.053Z,47.27
2023-03-26T12:34:46.868Z,46.87
2023-03-26T12:35:46.891Z,46.97
2023-03-26T12:36:46.840Z,46.97
2023-03-26T12:37:46.829Z,47.07
2023-03-26T12:39:16.228Z,47.07
2023-03-26T12:40:14.314Z,46.97
2023-03-26T12:40:46.807Z,46.87
2023-03-26T12:44:43.804Z,46.87
2023-03-26T12:44:59.631Z,46.87
2023-03-26T12:45:05.606Z,46.77
2023-03-26T12:47:54.628Z,46.77
2023-03-26T12:48:04.769Z,46.67
2023-03-26T12:48:10.281Z,46.67
2023-03-26T12:49:10.272Z,46.57
2023-03-26T12:50:10.174Z,46.77
2023-03-26T12:51:10.200Z,46.77
2023-03-26T12:52:10.148Z,46.67
2023-03-26T12:53:10.144Z,46.77
2023-03-26T12:54:10.156Z,46.67
2023-03-26T12:55:12.208Z,46.57
2023-03-26T12:56:10.110Z,46.67
2023-03-26T12:57:12.373Z,46.67
2023-03-26T12:58:13.745Z,46.77
2023-03-26T12:59:10.070Z,46.67
2023-03-26T13:00:10.059Z,46.67